Time;durP1;ratioP1;P1;durP2;ratioP2;P2;SDS_P1;SDS_P2;PMS_P1;PMS_P2;Temp;Humidity;BMP_temperature;BMP_pressure;BME280_temperature;BME280_humidity;BME280_pressure;Samples;Min_cycle;Max_cycle;Signal;HPM_P1;HPM_P2
2021/04/23 00:01:16;;;;;;;7.45;3.53;;;15.00;49.80;;;;;;4941802;28;20043;-61
2021/04/23 00:03:49;;;;;;;8.27;4.53;;;15.00;49.90;;;;;;4941893;28;20408;-62
2021/04/23 00:06:23;;;;;;;6.43;4.13;;;15.10;50.80;;;;;;4942159;28;20050;-61
2021/04/23 00:08:53;;;;;;;9.38;4.85;;;15.20;51.00;;;;;;4940482;28;20063;-61
2021/04/23 00:11:23;;;;;;;9.75;4.70;;;15.30;50.80;;;;;;4942539;28;20596;-61
2021/04/23 00:13:49;;;;;;;8.90;4.20;;;15.40;51.10;;;;;;4943463;28;20051;-61
2021/04/23 00:16:15;;;;;;;8.02;3.80;;;15.40;51.00;;;;;;4943976;28;20036;-61
2021/04/23 00:18:41;;;;;;;7.95;4.40;;;15.50;51.00;;;;;;4939452;28;20114;-61
2021/04/23 00:21:09;;;;;;;7.85;3.60;;;15.60;50.90;;;;;;4955069;28;20086;-61
2021/04/23 00:23:35;;;;;;;6.55;4.00;;;15.60;50.40;;;;;;4942350;28;20047;-62
2021/04/23 00:26:03;;;;;;;6.38;3.33;;;15.60;50.40;;;;;;4956654;28;20043;-62
2021/04/23 00:28:29;;;;;;;7.95;3.92;;;15.70;50.40;;;;;;4954937;28;20043;-61
2021/04/23 00:30:55;;;;;;;9.18;3.88;;;15.70;50.10;;;;;;4941464;28;20400;-61
2021/04/23 00:33:23;;;;;;;4.20;3.10;;;15.80;50.00;;;;;;4942094;28;20047;-61
2021/04/23 00:35:50;;;;;;;5.70;3.50;;;15.80;50.00;;;;;;4942974;28;20122;-62
2021/04/23 00:38:22;;;;;;;6.28;2.85;;;15.80;50.10;;;;;;4940201;28;20043;-61
2021/04/23 00:40:53;;;;;;;6.20;2.90;;;15.80;50.10;;;;;;4940843;28;20039;-61
2021/04/23 00:43:21;;;;;;;4.88;3.05;;;15.80;49.80;;;;;;4954487;28;20506;-61
2021/04/23 00:45:48;;;;;;;6.97;3.20;;;15.90;49.70;;;;;;4940028;28;21001;-62
2021/04/23 00:48:15;;;;;;;6.53;3.72;;;15.90;49.60;;;;;;4945504;28;20124;-61
2021/04/23 00:51:01;;;;;;;6.30;3.42;;;15.80;49.60;;;;;;4939312;28;20476;-62
2021/04/23 00:53:30;;;;;;;6.85;3.58;;;15.80;49.40;;;;;;4939688;28;20099;-61
2021/04/23 00:55:59;;;;;;;5.13;3.15;;;15.80;49.30;;;;;;4942108;28;20039;-61
2021/04/23 00:58:27;;;;;;;3.97;2.33;;;15.80;49.20;;;;;;4939670;28;20041;-61
2021/04/23 01:01:10;;;;;;;5.93;3.60;;;15.80;49.10;;;;;;4940802;28;20919;-61
2021/04/23 01:03:36;;;;;;;5.32;2.95;;;15.80;48.90;;;;;;4940670;28;20407;-61
2021/04/23 01:06:11;;;;;;;5.57;2.90;;;15.80;49.00;;;;;;4941235;28;20051;-61
2021/04/23 01:08:37;;;;;;;7.57;2.58;;;15.80;48.90;;;;;;4940363;28;20466;-61
2021/04/23 01:11:04;;;;;;;4.68;3.00;;;15.80;48.80;;;;;;4939823;28;20265;-61
2021/04/23 01:13:31;;;;;;;4.07;2.60;;;15.80;48.60;;;;;;4941167;28;20056;-61
2021/04/23 01:16:04;;;;;;;8.57;3.00;;;15.90;48.80;;;;;;4941384;28;20039;-61
2021/04/23 01:18:31;;;;;;;5.03;2.83;;;15.90;48.80;;;;;;4939872;28;20476;-61
2021/04/23 01:21:07;;;;;;;5.65;2.60;;;15.90;48.70;;;;;;4940077;28;20058;-61
2021/04/23 01:23:34;;;;;;;3.58;2.35;;;15.90;48.80;;;;;;4940460;28;20050;-61
2021/04/23 01:26:01;;;;;;;6.13;2.95;;;15.90;48.70;;;;;;4940073;28;20043;-61
2021/04/23 01:28:28;;;;;;;5.80;2.60;;;15.90;48.40;;;;;;4939076;28;22258;-61
2021/04/23 01:30:54;;;;;;;4.82;2.42;;;15.90;48.40;;;;;;4938850;28;20036;-62
2021/04/23 01:33:21;;;;;;;5.07;2.80;;;15.90;48.40;;;;;;4940752;28;20035;-61
2021/04/23 01:35:47;;;;;;;4.82;2.40;;;15.90;48.40;;;;;;4940345;28;20436;-61
2021/04/23 01:38:13;;;;;;;5.10;2.53;;;15.90;48.30;;;;;;4941210;28;20046;-61
2021/04/23 01:40:42;;;;;;;3.72;2.75;;;15.90;48.30;;;;;;4939233;28;20120;-62
2021/04/23 01:43:08;;;;;;;3.78;2.03;;;15.90;48.40;;;;;;4940080;28;20451;-61
2021/04/23 01:45:34;;;;;;;4.57;2.10;;;15.90;48.40;;;;;;4939362;28;20028;-62
2021/04/23 01:48:00;;;;;;;4.35;2.10;;;15.90;48.20;;;;;;4940123;28;20046;-61
2021/04/23 01:50:26;;;;;;;4.30;2.17;;;15.90;48.10;;;;;;4940611;28;20058;-61
2021/04/23 01:52:52;;;;;;;4.32;2.00;;;15.90;48.10;;;;;;4939137;28;20157;-61
2021/04/23 01:55:21;;;;;;;5.97;2.72;;;15.90;48.10;;;;;;4939525;28;20040;-61
2021/04/23 01:57:48;;;;;;;4.90;2.65;;;15.90;48.10;;;;;;4941879;28;20034;-61
2021/04/23 02:00:26;;;;;;;4.68;2.35;;;15.90;47.90;;;;;;4938633;28;20035;-61
2021/04/23 02:02:56;;;;;;;2.83;2.05;;;16.00;47.90;;;;;;4952661;28;20175;-61
2021/04/23 02:05:23;;;;;;;4.60;2.10;;;15.90;48.00;;;;;;4942404;28;20114;-61
2021/04/23 02:07:49;;;;;;;5.45;2.42;;;15.90;48.20;;;;;;4943296;28;20042;-61
2021/04/23 02:10:19;;;;;;;4.57;2.55;;;15.90;48.50;;;;;;4957712;28;20043;-61
2021/04/23 02:12:46;;;;;;;4.15;2.10;;;15.90;48.40;;;;;;4942919;28;20502;-61
2021/04/23 02:15:14;;;;;;;4.90;2.08;;;15.90;48.50;;;;;;4944087;28;20110;-61
2021/04/23 02:17:41;;;;;;;3.50;2.20;;;15.90;48.30;;;;;;4944843;28;20031;-61
2021/04/23 02:20:11;;;;;;;5.25;2.22;;;15.90;48.20;;;;;;4956747;28;20055;-61
2021/04/23 02:22:37;;;;;;;4.32;2.40;;;15.90;48.10;;;;;;4943227;28;20043;-61
2021/04/23 02:25:05;;;;;;;3.53;2.03;;;15.90;48.00;;;;;;4942644;28;20063;-62
2021/04/23 02:27:30;;;;;;;5.68;2.22;;;15.90;47.80;;;;;;4943195;28;20031;-61
2021/04/23 02:29:56;;;;;;;7.45;2.55;;;15.90;47.70;;;;;;4941111;28;20043;-61
2021/04/23 02:32:22;;;;;;;5.18;2.53;;;15.80;47.40;;;;;;4955252;28;20047;-61
2021/04/23 02:34:48;;;;;;;3.33;1.92;;;15.80;47.70;;;;;;4943743;28;20063;-62
2021/04/23 02:37:14;;;;;;;4.53;1.80;;;15.70;47.70;;;;;;4942793;28;20035;-62
2021/04/23 02:39:40;;;;;;;4.57;2.25;;;15.60;48.00;;;;;;4944096;28;20044;-61
2021/04/23 02:42:06;;;;;;;5.00;2.42;;;15.70;47.90;;;;;;4942584;28;20050;-61
2021/04/23 02:44:32;;;;;;;3.92;1.95;;;15.70;47.90;;;;;;4942742;28;20053;-61
2021/04/23 02:46:59;;;;;;;5.40;2.22;;;15.70;47.70;;;;;;4942293;28;20412;-61
2021/04/23 02:49:24;;;;;;;3.55;1.70;;;15.70;47.80;;;;;;4943068;28;20118;-61
2021/04/23 02:51:50;;;;;;;5.65;2.20;;;15.70;47.60;;;;;;4943058;28;20047;-61
2021/04/23 02:54:19;;;;;;;3.92;1.73;;;15.70;47.90;;;;;;4942573;28;20042;-61
2021/04/23 02:56:45;;;;;;;4.03;1.98;;;15.80;48.10;;;;;;4940681;28;20027;-61
2021/04/23 02:59:11;;;;;;;4.57;2.10;;;15.80;48.10;;;;;;4944693;28;20043;-61
2021/04/23 03:01:42;;;;;;;3.55;2.00;;;15.80;48.20;;;;;;4941564;28;20052;-61
2021/04/23 03:04:08;;;;;;;4.65;2.00;;;15.80;48.30;;;;;;4942960;28;20035;-61
2021/04/23 03:06:34;;;;;;;5.82;2.30;;;15.80;48.20;;;;;;4944888;28;20095;-62
2021/04/23 03:09:00;;;;;;;3.30;2.08;;;15.80;47.80;;;;;;4943825;28;20035;-61
2021/04/23 03:11:27;;;;;;;4.53;2.05;;;15.80;47.90;;;;;;4955733;28;20043;-61
2021/04/23 03:13:56;;;;;;;3.75;1.90;;;15.80;48.10;;;;;;4940136;28;22293;-61
2021/04/23 03:16:24;;;;;;;3.53;1.73;;;15.70;48.00;;;;;;4939637;28;20035;-61
2021/04/23 03:18:51;;;;;;;3.38;1.70;;;15.80;48.00;;;;;;4943843;28;20051;-61
2021/04/23 03:21:18;;;;;;;4.10;1.88;;;15.80;48.10;;;;;;4942241;28;20042;-61
2021/04/23 03:23:45;;;;;;;5.35;2.20;;;15.80;48.10;;;;;;4942210;28;20050;-61
2021/04/23 03:26:12;;;;;;;9.70;3.13;;;15.80;48.10;;;;;;4942455;28;20113;-66
2021/04/23 03:28:39;;;;;;;6.00;2.63;;;15.60;45.70;;;;;;4942531;28;20045;-65
2021/04/23 03:31:06;;;;;;;7.85;2.85;;;14.90;44.90;;;;;;4940195;28;20407;-65
2021/04/23 03:33:32;;;;;;;8.48;3.10;;;14.30;45.60;;;;;;4939249;28;20099;-65
2021/04/23 03:36:00;;;;;;;8.35;2.60;;;13.70;45.80;;;;;;4942599;28;20407;-65
2021/04/23 03:38:29;;;;;;;6.40;2.63;;;13.00;46.90;;;;;;4940060;28;20040;-65
2021/04/23 03:40:57;;;;;;;5.78;2.70;;;12.60;48.10;;;;;;4958375;28;20043;-65
2021/04/23 03:43:22;;;;;;;14.95;3.83;;;12.20;49.10;;;;;;4955060;28;20484;-65
2021/04/23 03:45:48;;;;;;;8.30;3.47;;;11.80;49.80;;;;;;4941458;28;20123;-65
2021/04/23 03:48:15;;;;;;;9.13;2.78;;;11.40;50.30;;;;;;4955150;28;20035;-65
2021/04/23 03:50:41;;;;;;;8.23;3.85;;;11.20;51.70;;;;;;4942711;28;20040;-65
2021/04/23 03:53:10;;;;;;;9.18;2.60;;;11.00;52.20;;;;;;4956256;28;20036;-65
2021/04/23 03:55:39;;;;;;;8.18;2.90;;;10.80;52.80;;;;;;4941178;28;20040;-65
2021/04/23 03:58:06;;;;;;;8.73;3.00;;;10.70;53.50;;;;;;4941944;28;20039;-65
2021/04/23 04:00:40;;;;;;;9.57;3.40;;;10.50;53.50;;;;;;4943697;28;20574;-65
2021/04/23 04:03:06;;;;;;;5.95;2.95;;;10.40;53.90;;;;;;4940961;28;20109;-65
2021/04/23 04:05:33;;;;;;;7.57;2.70;;;10.30;54.20;;;;;;4941689;28;20082;-65
2021/04/23 04:07:59;;;;;;;7.30;3.05;;;10.30;54.50;;;;;;4941544;28;20095;-65
2021/04/23 04:10:26;;;;;;;6.55;2.63;;;10.20;54.80;;;;;;4955587;28;20059;-65
2021/04/23 04:12:53;;;;;;;6.05;3.03;;;10.10;54.80;;;;;;4941620;28;20056;-65
2021/04/23 04:15:19;;;;;;;6.90;2.58;;;10.00;54.80;;;;;;4922078;28;20137;-65
2021/04/23 04:17:44;;;;;;;7.72;3.53;;;9.90;55.30;;;;;;4940853;28;20046;-65
2021/04/23 04:20:13;;;;;;;9.05;3.92;;;9.90;55.60;;;;;;4942443;28;20101;-65
2021/04/23 04:22:40;;;;;;;7.57;3.40;;;9.80;55.70;;;;;;4941275;28;20397;-65
2021/04/23 04:25:08;;;;;;;6.20;2.83;;;9.60;55.90;;;;;;4938393;28;20035;-65
2021/04/23 04:27:34;;;;;;;8.57;2.92;;;9.60;56.30;;;;;;4940885;28;20054;-65
2021/04/23 04:30:00;;;;;;;6.07;2.78;;;9.50;57.00;;;;;;4954678;28;20563;-65
2021/04/23 04:32:26;;;;;;;9.13;3.75;;;9.50;57.60;;;;;;4955293;28;20175;-65
2021/04/23 04:34:52;;;;;;;12.90;4.50;;;9.40;57.50;;;;;;4941130;28;20066;-65
2021/04/23 04:37:18;;;;;;;6.07;3.25;;;9.40;57.00;;;;;;4940858;28;20588;-65
2021/04/23 04:39:43;;;;;;;7.88;3.45;;;9.20;56.70;;;;;;4941115;28;20065;-65
2021/04/23 04:42:09;;;;;;;7.82;3.67;;;9.10;57.00;;;;;;4942670;28;20050;-65
2021/04/23 04:44:35;;;;;;;26.02;5.20;;;9.00;57.00;;;;;;4939807;28;22328;-65
2021/04/23 04:47:02;;;;;;;10.65;3.95;;;8.90;57.00;;;;;;4953286;28;20073;-65
2021/04/23 04:49:28;;;;;;;10.15;3.75;;;8.80;57.10;;;;;;4940655;28;20039;-65
2021/04/23 04:51:54;;;;;;;6.25;3.67;;;8.80;57.50;;;;;;4941637;28;20047;-65
2021/04/23 04:54:20;;;;;;;8.90;4.30;;;8.70;57.60;;;;;;4940868;28;20070;-65
2021/04/23 04:56:46;;;;;;;9.55;4.13;;;8.70;58.00;;;;;;4939911;28;20066;-65
2021/04/23 04:59:11;;;;;;;6.38;3.72;;;8.60;58.10;;;;;;4940943;28;20123;-65
2021/04/23 05:01:37;;;;;;;4.95;3.10;;;8.50;58.20;;;;;;4943020;28;20050;-65
2021/04/23 05:04:03;;;;;;;8.27;4.07;;;8.50;58.70;;;;;;4939475;28;20439;-65
2021/04/23 05:06:29;;;;;;;8.93;4.03;;;8.40;59.30;;;;;;4940252;28;20039;-65
2021/04/23 05:08:55;;;;;;;7.10;3.40;;;8.30;59.50;;;;;;4940308;28;20048;-66
2021/04/23 05:11:21;;;;;;;9.63;3.65;;;8.30;60.00;;;;;;4940298;28;20075;-66
2021/04/23 05:13:47;;;;;;;8.57;3.05;;;8.30;60.00;;;;;;4937915;28;20078;-66
2021/04/23 05:16:13;;;;;;;9.43;3.92;;;8.40;60.20;;;;;;4939285;28;20065;-66
2021/04/23 05:18:38;;;;;;;10.52;3.75;;;8.40;60.00;;;;;;4940576;28;20047;-65
2021/04/23 05:21:05;;;;;;;10.00;3.22;;;8.40;59.80;;;;;;4940889;28;20059;-65
2021/04/23 05:23:31;;;;;;;7.32;3.15;;;8.40;59.90;;;;;;4942536;28;20071;-65
2021/04/23 05:25:57;;;;;;;9.40;4.97;;;8.50;60.00;;;;;;4939126;28;20126;-65
2021/04/23 05:28:22;;;;;;;9.93;4.25;;;8.50;60.40;;;;;;4952983;28;20047;-66
2021/04/23 05:30:50;;;;;;;7.10;3.28;;;8.50;60.00;;;;;;4939227;28;20039;-66
2021/04/23 05:33:16;;;;;;;9.52;4.00;;;8.60;60.30;;;;;;4941000;28;20062;-66
2021/04/23 05:35:42;;;;;;;19.15;4.50;;;8.60;60.50;;;;;;4940859;28;20046;-66
2021/04/23 05:38:08;;;;;;;10.25;3.58;;;8.70;60.40;;;;;;4938794;28;20122;-66
2021/04/23 05:40:36;;;;;;;9.13;3.95;;;8.70;60.50;;;;;;4939838;28;20089;-66
2021/04/23 05:43:05;;;;;;;8.25;3.80;;;8.70;60.30;;;;;;4939906;28;20174;-66
2021/04/23 05:45:32;;;;;;;7.72;3.75;;;8.70;60.20;;;;;;4939889;28;20042;-66
2021/04/23 05:47:57;;;;;;;12.20;3.95;;;8.70;60.20;;;;;;4939494;28;20126;-67
2021/04/23 05:50:26;;;;;;;12.15;4.40;;;8.70;61.00;;;;;;4940024;28;20538;-67
2021/04/23 05:52:52;;;;;;;10.45;3.90;;;8.70;60.70;;;;;;4939046;28;20163;-67
2021/04/23 05:55:21;;;;;;;12.63;3.97;;;8.70;60.50;;;;;;4940401;28;20043;-67
2021/04/23 05:57:47;;;;;;;12.25;4.30;;;8.80;60.80;;;;;;4938525;28;20035;-66
2021/04/23 06:00:18;;;;;;;7.93;4.28;;;8.90;61.30;;;;;;4940521;28;20093;-65
2021/04/23 06:02:44;;;;;;;8.43;3.95;;;9.00;61.10;;;;;;4940873;28;20074;-66
2021/04/23 06:05:11;;;;;;;8.82;3.60;;;9.00;60.80;;;;;;4939832;28;20119;-66
2021/04/23 06:07:37;;;;;;;10.15;4.03;;;9.10;60.80;;;;;;4939367;28;20031;-66
2021/04/23 06:10:06;;;;;;;10.38;3.78;;;9.10;60.60;;;;;;4939678;28;20039;-65
2021/04/23 06:12:32;;;;;;;10.13;4.07;;;9.20;60.60;;;;;;4939342;28;20139;-66
2021/04/23 06:14:58;;;;;;;8.82;4.25;;;9.20;60.50;;;;;;4953091;28;20043;-66
2021/04/23 06:17:24;;;;;;;10.45;4.90;;;9.20;60.30;;;;;;4940294;28;20047;-66
2021/04/23 06:19:50;;;;;;;9.55;4.18;;;9.30;60.30;;;;;;4939383;28;20044;-66
2021/04/23 06:22:16;;;;;;;9.95;5.00;;;9.40;60.20;;;;;;4939950;28;20042;-66
2021/04/23 06:24:42;;;;;;;14.20;4.95;;;9.50;60.40;;;;;;4941393;28;20659;-65
2021/04/23 06:27:08;;;;;;;8.52;4.03;;;9.60;60.40;;;;;;4939126;28;20043;-65
2021/04/23 06:29:34;;;;;;;9.52;4.18;;;9.60;60.30;;;;;;4939237;28;20040;-66
2021/04/23 06:32:00;;;;;;;14.13;4.75;;;9.80;60.00;;;;;;4939602;28;20074;-66
2021/04/23 06:34:26;;;;;;;13.27;6.00;;;9.90;59.80;;;;;;4940794;28;20402;-66
2021/04/23 06:36:52;;;;;;;14.80;5.80;;;10.10;60.00;;;;;;4939747;28;20054;-67
2021/04/23 06:39:19;;;;;;;10.60;5.30;;;10.20;59.80;;;;;;4940060;28;20040;-66
2021/04/23 06:41:45;;;;;;;14.07;4.55;;;10.50;59.30;;;;;;4940560;28;20052;-68
2021/04/23 06:44:12;;;;;;;10.38;4.60;;;10.70;58.60;;;;;;4943796;28;20040;-75
2021/04/23 06:46:38;;;;;;;7.93;4.35;;;11.00;58.30;;;;;;4939393;28;20043;-64
2021/04/23 06:49:04;;;;;;;11.43;5.00;;;11.40;57.60;;;;;;4939302;28;20054;-65
2021/04/23 06:51:30;;;;;;;5.80;3.38;;;11.70;56.60;;;;;;4941167;28;20035;-67
2021/04/23 06:53:56;;;;;;;11.30;3.10;;;11.70;55.10;;;;;;4944573;28;20031;-64
2021/04/23 06:56:22;;;;;;;8.80;3.33;;;11.60;54.00;;;;;;4945504;28;20055;-72
2021/04/23 06:58:48;;;;;;;9.27;3.95;;;11.50;54.00;;;;;;4959228;28;20039;-72
2021/04/23 07:01:16;;;;;;;12.30;4.25;;;11.40;54.00;;;;;;4956919;28;20047;-70
2021/04/23 07:03:42;;;;;;;9.15;3.85;;;11.40;54.10;;;;;;4943736;28;20028;-70
2021/04/23 07:06:08;;;;;;;9.18;3.67;;;11.50;53.80;;;;;;4943137;28;20114;-73
2021/04/23 07:08:35;;;;;;;9.32;3.78;;;11.80;53.00;;;;;;4955736;28;20053;-71
2021/04/23 07:11:01;;;;;;;8.98;4.13;;;11.90;52.40;;;;;;4943588;28;20035;-71
2021/04/23 07:13:27;;;;;;;8.65;4.10;;;11.90;52.60;;;;;;4936943;28;20076;-78
2021/04/23 07:15:54;;;;;;;10.25;4.28;;;12.00;52.50;;;;;;4948410;28;20122;-77
2021/04/23 07:18:19;;;;;;;9.18;3.40;;;12.10;52.60;;;;;;4946576;28;20118;-66
2021/04/23 07:20:45;;;;;;;9.70;2.92;;;12.40;51.50;;;;;;4956999;28;20356;-67
2021/04/23 07:23:11;;;;;;;14.85;3.00;;;12.90;50.60;;;;;;4942487;28;20490;-67
2021/04/23 07:25:38;;;;;;;8.05;2.35;;;13.40;48.90;;;;;;4944372;28;20047;-68
2021/04/23 07:28:04;;;;;;;5.57;2.45;;;13.70;47.90;;;;;;4941537;28;20059;-67
2021/04/23 07:30:32;;;;;;;7.50;3.00;;;14.00;47.20;;;;;;4944023;28;20795;-67
2021/04/23 07:32:58;;;;;;;8.05;2.75;;;14.00;46.10;;;;;;4942358;28;20067;-67
2021/04/23 07:35:25;;;;;;;11.98;2.63;;;14.00;45.90;;;;;;4943832;28;20122;-68
2021/04/23 07:37:51;;;;;;;12.73;2.70;;;14.10;45.50;;;;;;4942999;28;20043;-67
2021/04/23 07:40:19;;;;;;;12.02;2.25;;;14.10;45.40;;;;;;4941679;28;20042;-67
2021/04/23 07:42:46;;;;;;;6.82;3.17;;;14.20;45.20;;;;;;4941689;28;20094;-67
2021/04/23 07:45:13;;;;;;;7.78;2.40;;;14.40;45.00;;;;;;4941111;28;20063;-67
2021/04/23 07:47:38;;;;;;;14.40;2.30;;;14.40;44.80;;;;;;4940763;28;20498;-67
2021/04/23 07:50:07;;;;;;;5.93;2.17;;;14.50;44.80;;;;;;4954704;28;20032;-69
2021/04/23 07:52:33;;;;;;;12.05;5.50;;;14.50;44.50;;;;;;4940654;28;20039;-64
2021/04/23 07:55:01;;;;;;;14.90;6.97;;;14.80;46.50;;;;;;4942333;28;20039;-65
2021/04/23 07:57:28;;;;;;;11.43;4.10;;;15.30;47.30;;;;;;4941109;28;20066;-65
2021/04/23 07:59:54;;;;;;;16.95;7.15;;;15.90;46.00;;;;;;4940321;28;20102;-64
2021/04/23 08:02:20;;;;;;;11.07;3.47;;;16.40;46.10;;;;;;4941256;28;20043;-64
2021/04/23 08:04:46;;;;;;;11.02;4.65;;;16.50;43.60;;;;;;4942839;28;20058;-63
2021/04/23 08:07:12;;;;;;;17.17;8.00;;;16.60;43.70;;;;;;4929002;28;20046;-68
2021/04/23 08:09:39;;;;;;;14.77;5.80;;;16.80;48.30;;;;;;4940835;28;20035;-67
2021/04/23 08:12:06;;;;;;;16.27;4.50;;;16.70;47.40;;;;;;4938678;28;20411;-68
2021/04/23 08:14:32;;;;;;;8.60;2.92;;;16.70;46.80;;;;;;4941550;28;20174;-69
2021/04/23 08:16:58;;;;;;;8.80;3.97;;;16.50;44.40;;;;;;4942414;28;20040;-67
2021/04/23 08:19:24;;;;;;;12.18;2.67;;;16.20;43.80;;;;;;4941536;28;20046;-67
2021/04/23 08:21:50;;;;;;;13.55;3.60;;;15.80;43.30;;;;;;4942105;28;20039;-69
2021/04/23 08:24:16;;;;;;;6.15;2.58;;;15.60;44.60;;;;;;4941811;28;20038;-68
2021/04/23 08:26:43;;;;;;;10.57;2.50;;;15.70;43.10;;;;;;4942267;28;20065;-70
2021/04/23 08:29:11;;;;;;;10.57;2.83;;;15.90;42.50;;;;;;4940016;28;20043;-67
2021/04/23 08:31:41;;;;;;;7.85;2.50;;;16.00;42.00;;;;;;4942633;28;20046;-69
2021/04/23 08:34:07;;;;;;;7.85;3.13;;;16.30;42.10;;;;;;4943464;28;20051;-69
2021/04/23 08:36:33;;;;;;;7.55;2.58;;;16.60;42.20;;;;;;4943240;28;20170;-69
2021/04/23 08:38:59;;;;;;;6.18;2.42;;;17.00;41.10;;;;;;4940690;28;20070;-68
2021/04/23 08:41:25;;;;;;;5.45;2.00;;;17.00;40.10;;;;;;4941243;28;20043;-63
2021/04/23 08:43:51;;;;;;;6.82;2.15;;;16.90;40.90;;;;;;4938327;28;20043;-67
2021/04/23 08:46:17;;;;;;;6.30;2.25;;;16.80;41.00;;;;;;4942879;28;20050;-62
2021/04/23 08:48:43;;;;;;;7.18;2.00;;;17.00;41.30;;;;;;4941422;28;20109;-68
2021/04/23 08:51:09;;;;;;;5.07;1.58;;;17.10;41.40;;;;;;4941355;28;20043;-63
2021/04/23 08:53:37;;;;;;;8.45;2.03;;;17.10;40.50;;;;;;4940655;28;20051;-68
2021/04/23 08:56:04;;;;;;;6.32;2.50;;;16.80;40.10;;;;;;4940958;28;20036;-68
2021/04/23 08:58:30;;;;;;;7.68;2.10;;;16.90;40.20;;;;;;4941302;28;20054;-67
2021/04/23 09:00:55;;;;;;;11.05;2.17;;;16.90;40.20;;;;;;4939553;28;20043;-68
2021/04/23 09:03:23;;;;;;;8.45;2.50;;;17.00;40.70;;;;;;4940933;28;20145;-66
2021/04/23 09:06:07;;;;;;;6.97;2.20;;;17.10;40.50;;;;;;4940645;28;22282;-66
2021/04/23 09:08:34;;;;;;;7.28;2.25;;;17.40;39.20;;;;;;4953526;28;20047;-62
2021/04/23 09:11:17;;;;;;;6.60;2.03;;;17.20;38.90;;;;;;4939974;28;20061;-62
2021/04/23 09:13:53;;;;;;;7.53;2.83;;;17.20;39.60;;;;;;4939280;28;20064;-63
2021/04/23 09:16:21;;;;;;;6.93;2.75;;;17.10;39.70;;;;;;4940652;28;20114;-62
2021/04/23 09:18:48;;;;;;;8.93;2.22;;;16.90;40.00;;;;;;4940087;28;20047;-62
2021/04/23 09:21:15;;;;;;;5.80;2.10;;;16.80;40.70;;;;;;4938912;28;20035;-62
2021/04/23 09:23:52;;;;;;;5.13;2.15;;;17.00;40.40;;;;;;4941032;28;20039;-62
2021/04/23 09:26:35;;;;;;;9.88;2.00;;;17.00;40.70;;;;;;4941174;28;20043;-62
2021/04/23 09:29:03;;;;;;;5.32;1.73;;;16.80;39.90;;;;;;4940355;28;20063;-62
2021/04/23 09:31:30;;;;;;;8.82;2.60;;;16.50;40.40;;;;;;4939624;28;20050;-62
2021/04/23 09:34:00;;;;;;;8.48;2.22;;;16.30;40.70;;;;;;4940385;28;20043;-63
2021/04/23 09:36:36;;;;;;;7.38;2.30;;;16.20;40.80;;;;;;4940408;28;20522;-62
2021/04/23 09:39:11;;;;;;;5.25;1.98;;;16.10;40.60;;;;;;4940454;28;20071;-62
2021/04/23 09:41:39;;;;;;;6.90;2.60;;;16.20;41.00;;;;;;4939258;28;20530;-62
2021/04/23 09:44:25;;;;;;;7.00;2.67;;;16.30;41.00;;;;;;4941007;28;20126;-61
2021/04/23 09:47:14;;;;;;;6.70;2.28;;;16.20;40.00;;;;;;4941606;28;20053;-62
2021/04/23 09:49:51;;;;;;;5.20;1.98;;;16.20;41.10;;;;;;4939131;28;20050;-62
2021/04/23 09:52:17;;;;;;;6.25;2.10;;;16.30;41.10;;;;;;4940303;28;20039;-64
2021/04/23 09:54:58;;;;;;;8.88;2.10;;;16.40;40.70;;;;;;4940076;28;20102;-62
2021/04/23 09:57:36;;;;;;;7.68;2.17;;;16.20;40.40;;;;;;4954400;28;20043;-62
2021/04/23 10:00:08;;;;;;;6.43;1.55;;;16.00;40.80;;;;;;4939821;28;20050;-62
2021/04/23 10:02:34;;;;;;;6.43;2.38;;;16.10;41.20;;;;;;4939132;28;20462;-62
2021/04/23 10:05:00;;;;;;;7.00;2.25;;;16.00;40.90;;;;;;4940212;28;20110;-63
2021/04/23 10:07:31;;;;;;;7.72;3.03;;;15.90;41.40;;;;;;4941476;28;20053;-62
2021/04/23 10:10:08;;;;;;;7.25;1.90;;;15.80;41.40;;;;;;4939501;28;20146;-62
2021/04/23 10:12:54;;;;;;;9.77;2.45;;;15.70;41.40;;;;;;4952856;28;20043;-62
2021/04/23 10:15:23;;;;;;;8.25;2.45;;;15.70;41.30;;;;;;4939429;28;20043;-62
2021/04/23 10:18:09;;;;;;;7.93;2.45;;;15.60;41.80;;;;;;4941263;28;20047;-62
2021/04/23 10:20:37;;;;;;;6.80;2.53;;;15.40;41.80;;;;;;4953397;28;20047;-62
2021/04/23 10:23:05;;;;;;;8.60;2.30;;;15.40;41.90;;;;;;4938609;28;20035;-62
2021/04/23 10:25:32;;;;;;;6.45;1.92;;;15.30;41.60;;;;;;4940076;28;20070;-63
2021/04/23 10:28:00;;;;;;;9.77;2.17;;;15.30;42.40;;;;;;4945230;28;20491;-63
2021/04/23 10:30:29;;;;;;;9.70;2.53;;;15.20;42.80;;;;;;4943096;28;20513;-63
2021/04/23 10:32:58;;;;;;;6.00;2.00;;;15.20;42.90;;;;;;4942797;28;21013;-66
2021/04/23 10:35:25;;;;;;;12.82;2.58;;;15.20;42.90;;;;;;4943902;28;20386;-62
2021/04/23 10:37:53;;;;;;;10.50;2.65;;;15.20;43.10;;;;;;4943815;28;20046;-62
2021/04/23 10:40:23;;;;;;;4.53;2.38;;;15.20;43.50;;;;;;4956872;28;20043;-61
2021/04/23 10:42:57;;;;;;;10.35;2.50;;;15.20;43.70;;;;;;4942226;28;20046;-62
2021/04/23 10:45:26;;;;;;;9.52;2.65;;;15.30;43.90;;;;;;4940400;28;20126;-62
2021/04/23 10:47:56;;;;;;;7.10;2.17;;;15.40;44.30;;;;;;4944913;28;20046;-62
2021/04/23 10:50:38;;;;;;;7.88;2.70;;;15.40;43.80;;;;;;4942279;28;20073;-62
2021/04/23 10:53:31;;;;;;;11.10;2.60;;;15.30;43.80;;;;;;4942696;28;20043;-62
2021/04/23 10:56:05;;;;;;;8.95;2.28;;;15.20;44.00;;;;;;4945529;28;20065;-62
2021/04/23 10:58:31;;;;;;;9.93;2.83;;;15.10;44.10;;;;;;4943865;28;20476;-65
2021/04/23 11:01:03;;;;;;;7.80;2.60;;;15.10;44.30;;;;;;4956405;28;20031;-61
2021/04/23 11:03:30;;;;;;;7.50;2.28;;;15.00;44.00;;;;;;4941378;28;20042;-66
2021/04/23 11:06:04;;;;;;;7.22;1.88;;;15.00;44.70;;;;;;4943169;28;20090;-68
2021/04/23 11:08:34;;;;;;;6.13;2.00;;;15.00;44.40;;;;;;4942213;28;20062;-68
2021/04/23 11:13:33;;;;;;;14.18;3.08;;;15.10;44.30;;;;;;4941704;28;20043;-67
2021/04/23 11:16:23;;;;;;;13.27;2.95;;;15.00;44.30;;;;;;4942093;28;20054;-67
2021/04/23 11:18:54;;;;;;;8.50;2.10;;;15.00;44.60;;;;;;4943421;28;20048;-66
2021/04/23 11:21:36;;;;;;;11.52;2.40;;;14.90;44.30;;;;;;4942681;28;20044;-67
2021/04/23 11:24:11;;;;;;;11.02;2.17;;;14.80;44.80;;;;;;4941454;28;20040;-67
2021/04/23 11:26:56;;;;;;;8.35;2.47;;;14.80;45.40;;;;;;4941515;28;20043;-66
2021/04/23 11:29:35;;;;;;;7.20;2.63;;;14.90;44.90;;;;;;4943320;28;20032;-67
2021/04/23 11:32:25;;;;;;;6.75;2.70;;;14.90;45.00;;;;;;4941541;28;20035;-64
2021/04/23 11:34:52;;;;;;;5.50;2.20;;;14.90;44.80;;;;;;4941732;28;20047;-63
2021/04/23 11:37:23;;;;;;;12.23;2.72;;;14.70;44.80;;;;;;4940964;28;20153;-63
2021/04/23 11:39:57;;;;;;;8.60;2.53;;;14.70;45.00;;;;;;4941768;28;20043;-63
2021/04/23 11:42:25;;;;;;;6.28;2.95;;;14.60;45.40;;;;;;4941803;28;20489;-63
2021/04/23 11:45:06;;;;;;;8.02;2.22;;;14.60;45.90;;;;;;4955745;28;20172;-62
2021/04/23 11:47:36;;;;;;;9.45;2.72;;;14.50;46.00;;;;;;4942836;28;20093;-62
2021/04/23 11:50:20;;;;;;;13.05;2.60;;;14.60;46.20;;;;;;4942911;28;20050;-62
2021/04/23 11:53:11;;;;;;;10.40;3.30;;;14.40;45.70;;;;;;4941341;28;20102;-62
2021/04/23 11:55:48;;;;;;;7.40;2.17;;;14.50;45.70;;;;;;4941576;28;20126;-59
2021/04/23 11:58:21;;;;;;;10.75;2.50;;;14.50;45.50;;;;;;4941548;28;20043;-59
2021/04/23 12:00:55;;;;;;;10.33;2.83;;;14.50;45.90;;;;;;4939697;28;20113;-59
2021/04/23 12:03:21;;;;;;;6.13;2.75;;;14.50;45.70;;;;;;4940508;28;20307;-59
2021/04/23 12:05:52;;;;;;;9.00;2.90;;;14.50;45.60;;;;;;4942131;28;20435;-60
2021/04/23 12:08:22;;;;;;;7.85;2.90;;;14.60;46.00;;;;;;4942637;28;20045;-60
2021/04/23 12:10:54;;;;;;;6.28;2.10;;;14.60;45.50;;;;;;4941961;28;20079;-60
2021/04/23 12:13:29;;;;;;;10.73;3.08;;;14.70;44.90;;;;;;4940897;28;20135;-60
2021/04/23 12:16:10;;;;;;;5.97;2.47;;;14.70;44.90;;;;;;4941414;28;20039;-59
2021/04/23 12:18:44;;;;;;;10.13;3.55;;;14.90;44.60;;;;;;4941153;28;20035;-60
2021/04/23 12:21:13;;;;;;;8.35;2.58;;;14.90;45.00;;;;;;4941905;28;20049;-59
2021/04/23 12:23:39;;;;;;;7.70;2.60;;;14.90;44.60;;;;;;4939846;28;20043;-60
2021/04/23 12:26:07;;;;;;;8.52;2.75;;;14.80;43.80;;;;;;4941987;28;20036;-60
2021/04/23 12:28:38;;;;;;;9.65;2.70;;;14.70;44.60;;;;;;4942063;28;20067;-60
2021/04/23 12:31:06;;;;;;;9.52;2.60;;;14.70;44.20;;;;;;4941488;28;20035;-60
2021/04/23 12:33:53;;;;;;;7.85;2.63;;;14.80;44.80;;;;;;4941320;28;20032;-59
2021/04/23 12:36:30;;;;;;;9.45;2.40;;;15.20;44.60;;;;;;4940253;28;20042;-58
2021/04/23 12:39:26;;;;;;;11.77;3.50;;;15.20;44.00;;;;;;4940721;28;20093;-59
2021/04/23 12:41:53;;;;;;;10.25;3.50;;;15.10;43.40;;;;;;4954817;28;20040;-61
2021/04/23 12:44:20;;;;;;;6.47;3.25;;;15.20;44.40;;;;;;4953466;28;20066;-63
2021/04/23 12:46:49;;;;;;;6.65;2.72;;;15.30;45.80;;;;;;4940555;28;20406;-62
2021/04/23 12:49:23;;;;;;;9.57;3.60;;;15.40;45.60;;;;;;4955978;28;20039;-60
2021/04/23 12:51:56;;;;;;;8.20;2.90;;;15.40;45.10;;;;;;4940062;28;20518;-62
2021/04/23 12:54:52;;;;;;;6.82;2.22;;;15.40;45.10;;;;;;4939892;28;20042;-62
2021/04/23 12:57:30;;;;;;;11.60;3.03;;;15.30;44.80;;;;;;4940362;28;20043;-60